Time;durP1;ratioP1;P1;durP2;ratioP2;P2;SDS_P1;SDS_P2;PMS_P1;PMS_P2;Temp;Humidity;BMP_temperature;BMP_pressure;BME280_temperature;BME280_humidity;BME280_pressure;Samples;Min_cycle;Max_cycle;Signal;HPM_P1;HPM_P2
2022/11/04 00:01:57;;;;;;;2.35;1.00;;;;;;;9.19;100.00;98007.81;5113959;28;20047;-78
2022/11/04 00:04:26;;;;;;;1.08;0.90;;;;;;;9.26;100.00;98012.41;5113937;28;20058;-78
2022/11/04 00:06:55;;;;;;;6.15;0.93;;;;;;;9.47;100.00;98039.41;5113877;28;20047;-77
2022/11/04 00:09:23;;;;;;;0.90;0.80;;;;;;;9.45;100.00;98040.66;5113989;28;20074;-78
2022/11/04 00:14:35;;;;;;;3.17;0.80;;;;;;;9.26;100.00;98020.56;5103986;28;20110;-78
2022/11/04 00:30:47;;;;;;;1.30;0.98;;;;;;;8.99;100.00;98056.56;5085833;28;20127;-78
2022/11/04 00:33:24;;;;;;;1.80;0.98;;;;;;;9.05;100.00;98063.06;5092938;28;20052;-78
2022/11/04 00:35:53;;;;;;;1.40;1.13;;;;;;;8.78;100.00;98035.00;5092335;28;20055;-78
2022/11/04 00:38:21;;;;;;;2.85;0.95;;;;;;;8.86;100.00;98051.06;5092147;28;20044;-78
2022/11/04 00:40:48;;;;;;;0.98;0.88;;;;;;;8.86;100.00;98056.50;5100406;28;20043;-78
2022/11/04 00:43:14;;;;;;;2.20;0.90;;;;;;;9.02;100.00;98071.59;5112162;28;20503;-78
2022/11/04 00:45:41;;;;;;;1.95;1.15;;;;;;;8.96;100.00;98067.81;5111813;28;20411;-78
2022/11/04 00:48:08;;;;;;;1.65;0.98;;;;;;;8.88;100.00;98051.69;5112316;28;20097;-78
2022/11/04 00:50:34;;;;;;;3.65;1.10;;;;;;;9.08;100.00;98073.50;5114051;28;20101;-78
2022/11/04 00:53:02;;;;;;;6.07;1.10;;;;;;;9.04;100.00;98064.09;5116403;28;20057;-78
2022/11/04 00:55:30;;;;;;;1.77;1.23;;;;;;;9.03;100.00;98065.97;5114610;28;20120;-78
2022/11/04 00:57:57;;;;;;;2.88;1.02;;;;;;;8.84;100.00;98061.28;5115012;28;20127;-78
2022/11/04 01:00:24;;;;;;;2.33;1.17;;;;;;;8.84;100.00;98055.88;5115146;28;20168;-78
2022/11/04 01:02:51;;;;;;;2.30;1.13;;;;;;;8.87;100.00;98044.63;5116207;28;20051;-78
2022/11/04 01:05:17;;;;;;;1.92;1.10;;;;;;;8.89;100.00;98064.22;5116700;28;20044;-78
2022/11/04 01:07:44;;;;;;;1.23;0.90;;;;;;;8.87;100.00;98060.88;5114892;28;20130;-78
2022/11/04 01:10:11;;;;;;;4.45;1.25;;;;;;;9.06;100.00;98067.41;5116276;28;20441;-78
2022/11/04 01:12:39;;;;;;;1.52;1.08;;;;;;;9.00;100.00;98081.78;5116056;28;20052;-78
2022/11/04 01:15:06;;;;;;;1.52;0.70;;;;;;;8.85;100.00;98057.53;5116621;28;20146;-78
2022/11/04 01:17:33;;;;;;;1.80;1.02;;;;;;;9.08;100.00;98078.06;5106144;27;20048;-78
2022/11/04 01:19:59;;;;;;;1.10;0.95;;;;;;;9.02;100.00;98077.84;5095944;28;20056;-78
2022/11/04 01:22:26;;;;;;;1.45;1.05;;;;;;;9.04;100.00;98078.47;5100318;28;20046;-78
2022/11/04 01:24:52;;;;;;;1.25;0.77;;;;;;;9.01;100.00;98065.31;5116125;28;20048;-78
2022/11/04 01:27:19;;;;;;;2.78;1.00;;;;;;;9.02;100.00;98063.47;5114319;28;20414;-78
2022/11/04 01:29:47;;;;;;;1.67;0.70;;;;;;;9.13;100.00;98076.41;5115933;28;20082;-78
2022/11/04 01:32:13;;;;;;;1.00;0.90;;;;;;;9.16;100.00;98091.47;5115829;28;20047;-78
2022/11/04 01:34:40;;;;;;;2.03;0.80;;;;;;;9.11;100.00;98073.09;5107167;28;20418;-78
2022/11/04 01:37:06;;;;;;;1.00;0.70;;;;;;;9.12;100.00;98074.78;5106105;28;20439;-78
2022/11/04 01:39:33;;;;;;;1.17;0.77;;;;;;;9.14;100.00;98088.13;5115640;28;20203;-78
2022/11/04 01:41:59;;;;;;;0.90;0.60;;;;;;;9.20;100.00;98081.88;5115698;28;20078;-78
2022/11/04 01:44:50;;;;;;;0.60;0.60;;;;;;;9.21;100.00;98087.09;5115724;28;20052;-78
2022/11/04 01:47:20;;;;;;;0.63;0.63;;;;;;;9.12;100.00;98082.91;5115740;28;20051;-78
2022/11/04 01:49:50;;;;;;;0.77;0.57;;;;;;;9.06;100.00;98067.41;5114445;28;20131;-78
2022/11/04 01:52:22;;;;;;;1.58;0.70;;;;;;;9.20;100.00;98079.19;5109911;28;20052;-78
2022/11/04 01:54:52;;;;;;;1.02;0.70;;;;;;;9.14;100.00;98083.53;5115729;28;20051;-78
2022/11/04 01:57:23;;;;;;;1.02;0.38;;;;;;;9.15;100.00;98087.06;5115595;28;20051;-78
2022/11/04 01:59:52;;;;;;;0.95;0.60;;;;;;;9.12;100.00;98066.63;5115624;28;20445;-78
2022/11/04 02:02:18;;;;;;;1.02;0.55;;;;;;;9.23;100.00;98083.34;5114461;27;20048;-78
2022/11/04 02:04:46;;;;;;;1.48;0.73;;;;;;;9.06;100.00;98089.09;5113224;28;20085;-78
2022/11/04 02:07:12;;;;;;;0.50;0.43;;;;;;;8.98;100.00;98084.69;5115627;27;20059;-78
2022/11/04 02:09:41;;;;;;;1.33;0.65;;;;;;;8.90;100.00;98073.19;5102789;28;20059;-78
2022/11/04 02:14:54;;;;;;;6.05;1.00;;;;;;;9.11;100.00;98102.91;5094811;28;20055;-78
2022/11/04 02:17:31;;;;;;;0.65;0.52;;;;;;;8.88;100.00;98073.38;5114085;28;20410;-78
2022/11/04 02:20:17;;;;;;;1.17;0.65;;;;;;;9.07;100.00;98081.81;5113323;28;20043;-78
2022/11/04 02:23:11;;;;;;;1.33;0.90;;;;;;;8.97;100.00;98080.34;5094194;28;20494;-78
2022/11/04 02:26:04;;;;;;;3.03;0.57;;;;;;;9.00;100.00;98062.81;5094965;28;20479;-78
2022/11/04 02:28:54;;;;;;;4.13;0.80;;;;;;;8.87;100.00;98052.75;5094742;28;20566;-78
2022/11/04 02:31:32;;;;;;;0.40;0.40;;;;;;;8.97;100.00;98074.91;5094641;28;20044;-78
2022/11/04 02:34:07;;;;;;;2.30;0.70;;;;;;;8.89;100.00;98066.94;5100309;28;20138;-78
2022/11/04 02:36:43;;;;;;;1.35;0.52;;;;;;;8.80;100.00;98066.25;5112905;28;20392;-78
2022/11/04 02:39:21;;;;;;;1.33;0.60;;;;;;;8.70;100.00;98071.19;5114696;28;20487;-78
2022/11/04 02:41:55;;;;;;;2.28;0.63;;;;;;;8.77;100.00;98085.63;5114688;27;20058;-78
2022/11/04 02:44:30;;;;;;;1.48;0.60;;;;;;;8.70;100.00;98070.38;5098736;28;20044;-78
2022/11/04 02:47:00;;;;;;;1.75;0.43;;;;;;;8.66;100.00;98075.38;5112881;28;20093;-78
2022/11/04 02:49:30;;;;;;;;;;;;;;;8.86;100.00;98100.69;5114615;28;20059;-78
2022/11/04 02:52:02;;;;;;;1.77;0.90;;;;;;;8.77;100.00;98076.66;5114546;28;19919;-78
2022/11/04 02:54:36;;;;;;;3.45;0.90;;;;;;;8.78;100.00;98097.31;5109723;28;20048;-78
2022/11/04 02:57:06;;;;;;;4.00;0.63;;;;;;;8.72;100.00;98079.16;5114504;28;20060;-78
2022/11/04 02:59:36;;;;;;;1.17;0.60;;;;;;;8.73;100.00;98094.34;5113508;28;20151;-78
2022/11/04 03:02:07;;;;;;;2.95;0.77;;;;;;;8.63;100.00;98089.31;5114087;28;20138;-78
2022/11/04 03:04:38;;;;;;;0.40;0.40;;;;;;;8.66;100.00;98088.91;5112163;28;20054;-78
2022/11/04 03:07:08;;;;;;;3.15;0.90;;;;;;;8.70;100.00;98105.59;5114224;28;20048;-78
2022/11/04 03:09:38;;;;;;;0.63;0.63;;;;;;;8.59;100.00;98120.53;5114057;28;20048;-78
2022/11/04 03:12:09;;;;;;;2.47;0.60;;;;;;;8.61;100.00;98113.88;5114141;28;20048;-78
2022/11/04 03:14:40;;;;;;;2.75;1.10;;;;;;;8.70;100.00;98125.38;5098646;28;20059;-78
2022/11/04 03:17:15;;;;;;;1.65;0.75;;;;;;;8.59;100.00;98117.81;5093739;28;20050;-78
2022/11/04 03:19:49;;;;;;;4.45;1.65;;;;;;;8.73;100.00;98103.34;5109640;28;20047;-78
2022/11/04 03:22:19;;;;;;;1.38;0.57;;;;;;;8.65;100.00;98090.75;5113842;28;20051;-78
2022/11/04 03:24:48;;;;;;;1.17;0.85;;;;;;;8.62;100.00;98093.03;5113931;28;20465;-78
2022/11/04 03:27:24;;;;;;;1.40;0.70;;;;;;;8.77;100.00;98098.34;5113895;28;20058;-78
2022/11/04 03:29:59;;;;;;;4.03;0.93;;;;;;;8.74;100.00;98118.53;5112787;28;20502;-78
2022/11/04 03:32:37;;;;;;;3.25;0.70;;;;;;;8.83;100.00;98143.63;5097339;28;20044;-78
2022/11/04 03:35:04;;;;;;;3.60;0.80;;;;;;;8.85;100.00;98150.53;5113623;28;20056;-78
2022/11/04 03:37:32;;;;;;;2.10;0.70;;;;;;;8.90;100.00;98159.91;5113621;28;20198;-78
2022/11/04 03:39:58;;;;;;;4.65;0.85;;;;;;;8.86;100.00;98148.66;5113490;28;20043;-79
2022/11/04 03:42:27;;;;;;;2.60;0.88;;;;;;;8.86;100.00;98140.50;5113228;28;20051;-78
2022/11/04 03:44:56;;;;;;;2.65;0.90;;;;;;;8.93;100.00;98148.69;5112572;28;20498;-78
2022/11/04 03:47:25;;;;;;;2.33;0.77;;;;;;;8.89;100.00;98145.53;5111591;28;20465;-78
2022/11/04 03:49:59;;;;;;;1.65;0.73;;;;;;;8.88;100.00;98160.09;5113398;28;20040;-78
2022/11/04 03:52:26;;;;;;;3.53;0.90;;;;;;;8.86;100.00;98170.31;5113047;28;20051;-78
2022/11/04 03:54:53;;;;;;;2.47;0.60;;;;;;;8.71;100.00;98146.03;5113211;28;20546;-79
2022/11/04 03:57:36;;;;;;;2.28;0.90;;;;;;;8.82;100.00;98169.03;5113202;28;20451;-78
2022/11/04 04:00:10;;;;;;;7.20;1.17;;;;;;;8.71;100.00;98164.19;5108301;27;20498;-78
2022/11/04 04:02:49;;;;;;;0.95;0.70;;;;;;;8.81;100.00;98178.22;5108286;28;20059;-78
2022/11/04 04:05:23;;;;;;;4.63;0.88;;;;;;;8.54;100.00;98152.81;5113126;28;20109;-78
2022/11/04 04:07:55;;;;;;;2.67;0.65;;;;;;;8.65;100.00;98165.81;5113138;28;20138;-78
2022/11/04 04:10:40;;;;;;;2.40;0.90;;;;;;;8.58;100.00;98145.94;5113034;28;20422;-78
2022/11/04 04:13:17;;;;;;;2.45;1.20;;;;;;;8.57;100.00;98161.38;5113016;28;20059;-78
2022/11/04 04:15:49;;;;;;;3.78;1.20;;;;;;;8.53;100.00;98162.78;5110569;28;20062;-78
2022/11/04 04:18:21;;;;;;;4.57;1.25;;;;;;;8.36;100.00;98140.53;5112908;28;20134;-78
2022/11/04 04:20:51;;;;;;;11.10;1.30;;;;;;;8.37;100.00;98130.53;5112782;28;20474;-78
2022/11/04 04:28:56;;;;;;;1.95;0.88;;;;;;;8.43;100.00;98149.56;5112414;28;20418;-78
2022/11/04 04:34:10;;;;;;;3.83;2.05;;;;;;;8.24;100.00;98139.41;5110776;28;20054;-78
2022/11/04 04:36:45;;;;;;;4.43;1.77;;;;;;;8.20;100.00;98149.78;5104485;28;20057;-78
2022/11/04 04:45:02;;;;;;;1.35;1.13;;;;;;;7.87;100.00;98146.75;5092574;28;20079;-78
2022/11/04 04:47:49;;;;;;;4.50;1.25;;;;;;;7.77;100.00;98150.63;5103474;28;20108;-78
2022/11/04 04:50:19;;;;;;;2.92;1.40;;;;;;;7.80;100.00;98152.09;5107390;28;20043;-78
2022/11/04 04:52:49;;;;;;;1.60;1.33;;;;;;;7.90;100.00;98159.91;5112428;28;20142;-78
2022/11/04 04:55:17;;;;;;;2.00;1.38;;;;;;;7.87;100.00;98160.28;5112442;28;20586;-78
2022/11/04 04:57:44;;;;;;;2.65;1.50;;;;;;;7.82;100.00;98154.63;5112813;28;20048;-78
2022/11/04 05:00:14;;;;;;;5.38;1.33;;;;;;;7.77;100.00;98155.19;5096321;28;20051;-78
2022/11/04 05:02:40;;;;;;;1.98;1.48;;;;;;;7.68;100.00;98138.25;5107199;28;20079;-78
2022/11/04 05:05:08;;;;;;;3.20;1.58;;;;;;;7.73;100.00;98143.91;5112345;28;20495;-78
2022/11/04 05:07:34;;;;;;;3.00;1.30;;;;;;;7.77;100.00;98115.44;5112329;28;20047;-78
2022/11/04 05:10:02;;;;;;;3.83;1.67;;;;;;;7.79;100.00;98126.06;5112640;28;20148;-78
2022/11/04 05:13:24;;;;;;;8.85;1.65;;;;;;;7.74;100.00;98123.94;5112499;28;20464;-78
2022/11/04 05:15:17;;;;;;;2.47;1.00;;;;;;;7.58;100.00;98097.13;5101657;28;20075;-78
2022/11/04 05:17:43;;;;;;;13.73;7.43;;;;;;;7.46;100.00;98077.88;5104711;28;20071;-78
2022/11/04 05:20:11;;;;;;;11.02;1.75;;;;;;;7.42;100.00;98054.94;5092056;28;20048;-78
2022/11/04 05:22:37;;;;;;;5.30;1.17;;;;;;;7.51;100.00;98080.00;5091673;28;20056;-78
2022/11/04 05:25:06;;;;;;;3.15;0.88;;;;;;;7.34;100.00;98072.13;5091819;28;20483;-78
2022/11/04 05:27:32;;;;;;;4.47;1.05;;;;;;;7.29;100.00;98085.38;5091762;28;20050;-78
2022/11/04 05:29:59;;;;;;;2.10;1.00;;;;;;;7.37;100.00;98084.44;5096797;28;20062;-78
2022/11/04 05:32:28;;;;;;;3.30;1.10;;;;;;;7.32;100.00;98086.88;5105209;28;20414;-78
2022/11/04 05:34:55;;;;;;;5.27;0.90;;;;;;;7.29;100.00;98098.91;5112149;28;20483;-78
2022/11/04 05:37:21;;;;;;;2.55;0.73;;;;;;;7.07;100.00;98089.88;5113499;28;20124;-78
2022/11/04 05:39:48;;;;;;;3.97;1.10;;;;;;;7.17;100.00;98111.22;5116288;28;20075;-78
2022/11/04 05:42:16;;;;;;;4.93;1.15;;;;;;;7.07;100.00;98098.00;5115688;28;20127;-79
2022/11/04 05:44:42;;;;;;;4.18;1.83;;;;;;;7.07;100.00;98100.69;5113897;28;20127;-79
2022/11/04 05:47:09;;;;;;;2.80;0.90;;;;;;;7.19;100.00;98092.94;5114822;28;20508;-78
2022/11/04 05:49:35;;;;;;;2.95;1.00;;;;;;;7.15;100.00;98081.69;5115904;28;20505;-78
2022/11/04 05:52:02;;;;;;;5.05;1.15;;;;;;;7.24;100.00;98107.56;5115678;28;20052;-79
2022/11/04 05:54:29;;;;;;;2.13;0.70;;;;;;;7.11;100.00;98104.72;5115986;28;20044;-78
2022/11/04 05:56:55;;;;;;;0.95;0.80;;;;;;;7.02;100.00;98105.84;5116137;28;20039;-78
2022/11/04 05:59:23;;;;;;;7.50;1.05;;;;;;;6.99;100.00;98111.63;5114015;28;20043;-78
2022/11/04 06:01:50;;;;;;;5.05;1.85;;;;;;;6.94;100.00;98114.03;5115206;28;20035;-78
2022/11/04 06:04:18;;;;;;;6.80;1.25;;;;;;;6.98;100.00;98110.75;5099554;28;20048;-79
2022/11/04 06:06:45;;;;;;;2.22;1.05;;;;;;;6.97;100.00;98097.44;5096172;28;20051;-78
2022/11/04 06:09:12;;;;;;;4.35;0.95;;;;;;;6.88;100.00;98085.91;5096121;28;20055;-78
2022/11/04 06:11:39;;;;;;;2.35;0.88;;;;;;;6.78;100.00;98061.88;5096514;28;20044;-78
2022/11/04 06:14:06;;;;;;;1.95;0.90;;;;;;;6.82;100.00;98109.13;5095685;28;20048;-78
2022/11/04 06:16:34;;;;;;;4.57;2.10;;;;;;;6.76;100.00;98096.38;5096444;28;20070;-78
2022/11/04 06:19:00;;;;;;;4.03;1.30;;;;;;;6.75;100.00;98085.75;5095954;28;20083;-78
2022/11/04 06:21:29;;;;;;;5.57;0.88;;;;;;;6.70;100.00;98083.59;5095583;28;20051;-78
2022/11/04 06:23:56;;;;;;;3.35;1.10;;;;;;;6.81;100.00;98115.53;5095844;28;20043;-78
2022/11/04 06:26:25;;;;;;;1.13;0.90;;;;;;;6.79;100.00;98122.13;5097668;28;20075;-78
2022/11/04 06:28:51;;;;;;;3.63;1.10;;;;;;;6.66;100.00;98107.44;5095636;28;20146;-78
2022/11/04 06:31:19;;;;;;;3.22;1.02;;;;;;;6.76;100.00;98119.81;5096060;28;20404;-78
2022/11/04 06:33:47;;;;;;;3.83;1.10;;;;;;;6.65;100.00;98116.53;5115778;28;20051;-78
2022/11/04 06:36:15;;;;;;;1.40;0.93;;;;;;;6.73;100.00;98151.59;5116477;28;20048;-78
2022/11/04 06:38:42;;;;;;;3.25;1.20;;;;;;;6.73;100.00;98156.16;5116166;28;20123;-78
2022/11/04 06:41:12;;;;;;;4.53;1.98;;;;;;;6.80;100.00;98165.19;5115523;28;20582;-78
2022/11/04 06:43:39;;;;;;;3.00;1.67;;;;;;;6.87;100.00;98160.72;5110058;28;20406;-78
2022/11/04 06:46:07;;;;;;;12.50;6.95;;;;;;;6.91;100.00;98145.00;5115637;28;20136;-78
2022/11/04 06:48:33;;;;;;;3.95;1.30;;;;;;;6.72;100.00;98122.06;5115643;28;20047;-78
2022/11/04 06:51:01;;;;;;;1.80;1.20;;;;;;;6.72;100.00;98127.47;5115790;28;20070;-78
2022/11/04 06:53:29;;;;;;;5.07;1.33;;;;;;;6.85;100.00;98141.16;5115594;28;20054;-78
2022/11/04 06:56:02;;;;;;;2.08;1.15;;;;;;;6.92;100.00;98141.25;5115653;28;20054;-78
2022/11/04 06:58:28;;;;;;;4.75;3.28;;;;;;;6.97;100.00;98146.94;5103065;28;20135;-78
2022/11/04 07:00:55;;;;;;;12.15;5.00;;;;;;;7.05;100.00;98157.66;5095734;28;20768;-78
2022/11/04 07:03:22;;;;;;;10.82;5.22;;;;;;;7.01;100.00;98156.31;5115185;28;20391;-78
2022/11/04 07:05:48;;;;;;;7.82;5.07;;;;;;;7.05;100.00;98157.66;5097986;28;20403;-78
2022/11/04 07:08:17;;;;;;;8.77;4.55;;;;;;;7.18;100.00;98162.41;5094977;28;20130;-78
2022/11/04 07:10:44;;;;;;;2.58;1.85;;;;;;;7.16;100.00;98155.50;5094848;28;20087;-78
2022/11/04 07:13:10;;;;;;;8.82;2.75;;;;;;;7.13;100.00;98145.88;5110734;28;20063;-78
2022/11/04 07:15:38;;;;;;;12.05;1.60;;;;;;;7.23;100.00;98134.81;5115217;28;20084;-78
2022/11/04 07:18:05;;;;;;;9.20;1.30;;;;;;;7.39;100.00;98145.41;5114940;28;20058;-78
2022/11/04 07:20:32;;;;;;;5.38;1.52;;;;;;;7.34;100.00;98136.19;5115162;28;20052;-78
2022/11/04 07:22:59;;;;;;;4.82;1.45;;;;;;;7.41;100.00;98145.22;5098303;28;20046;-78
2022/11/04 07:25:27;;;;;;;3.72;1.23;;;;;;;7.44;100.00;98126.72;5103473;28;20047;-78
2022/11/04 07:27:53;;;;;;;4.07;1.77;;;;;;;7.29;100.00;98104.31;5114771;28;20479;-78
2022/11/04 07:30:20;;;;;;;11.20;1.40;;;;;;;7.39;100.00;98114.81;5115016;27;20044;-78
2022/11/04 07:32:47;;;;;;;3.13;1.60;;;;;;;7.38;100.00;98110.44;5114298;28;20059;-78
2022/11/04 07:35:14;;;;;;;3.80;1.30;;;;;;;7.48;100.00;98120.94;5114879;28;20130;-79
2022/11/04 07:37:40;;;;;;;3.28;1.33;;;;;;;7.32;100.00;98103.09;5114436;28;20550;-78
2022/11/04 07:40:09;;;;;;;3.58;1.40;;;;;;;7.35;100.00;98103.53;5112716;28;20062;-79
2022/11/04 07:42:37;;;;;;;1.80;1.42;;;;;;;7.45;100.00;98089.69;5101122;27;20048;-79
2022/11/04 07:45:04;;;;;;;6.00;1.55;;;;;;;7.41;100.00;98097.38;5094156;28;20048;-78
2022/11/04 07:47:30;;;;;;;3.95;1.40;;;;;;;7.57;100.00;98125.19;5093793;28;20135;-78
2022/11/04 07:49:57;;;;;;;3.67;2.63;;;;;;;7.59;100.00;98115.06;5094355;28;20493;-79
2022/11/04 07:52:24;;;;;;;4.85;2.35;;;;;;;7.62;100.00;98120.06;5093879;28;20044;-78
2022/11/04 07:54:51;;;;;;;7.85;2.00;;;;;;;7.70;100.00;98128.06;5105392;28;20138;-79
2022/11/04 07:57:17;;;;;;;7.88;4.07;;;;;;;7.64;100.00;98096.38;5114153;28;20048;-78
2022/11/04 07:59:45;;;;;;;4.07;2.15;;;;;;;7.83;100.00;98118.38;5113812;28;20048;-79
2022/11/04 08:02:12;;;;;;;3.83;2.28;;;;;;;7.84;100.00;98111.97;5093571;28;20047;-78
2022/11/04 08:04:38;;;;;;;4.32;1.10;;;;;;;7.97;100.00;98106.69;5093726;28;20074;-78
2022/11/04 08:07:08;;;;;;;3.35;1.50;;;;;;;7.98;100.00;98092.94;5093235;28;20113;-78
2022/11/04 08:09:36;;;;;;;7.53;1.98;;;;;;;8.08;100.00;98103.44;5113318;28;20090;-78
2022/11/04 08:12:03;;;;;;;2.80;1.58;;;;;;;8.21;100.00;98115.44;5113613;28;20101;-78
2022/11/04 08:14:30;;;;;;;4.10;1.70;;;;;;;8.27;100.00;98112.75;5113809;28;20086;-78
2022/11/04 08:16:58;;;;;;;6.07;1.88;;;;;;;8.26;100.00;98110.25;5113892;28;20459;-79
2022/11/04 08:19:25;;;;;;;6.28;1.90;;;;;;;8.36;100.00;98108.03;5113957;28;20048;-79
2022/11/04 08:21:52;;;;;;;5.47;1.70;;;;;;;8.43;100.00;98097.25;5109150;28;20080;-78
2022/11/04 08:24:18;;;;;;;6.20;1.90;;;;;;;8.60;100.00;98111.38;5113577;28;20048;-79
2022/11/04 08:26:45;;;;;;;6.63;1.95;;;;;;;8.71;100.00;98118.94;5112685;28;20225;-79
2022/11/04 08:29:12;;;;;;;10.75;1.88;;;;;;;8.71;100.00;98123.53;5113757;28;20047;-78
2022/11/04 08:31:39;;;;;;;2.58;1.50;;;;;;;8.61;100.00;98096.78;5111233;28;20055;-78
2022/11/04 08:34:07;;;;;;;3.88;1.38;;;;;;;8.73;100.00;98087.09;5092795;28;20078;-79
2022/11/04 08:36:36;;;;;;;3.75;1.52;;;;;;;8.84;100.00;98086.50;5108124;28;20050;-79
2022/11/04 08:39:04;;;;;;;3.80;2.17;;;;;;;9.20;100.00;98117.13;5113558;28;20142;-78
2022/11/04 08:41:33;;;;;;;2.75;1.73;;;;;;;9.20;100.00;98119.84;5113572;28;20440;-78
2022/11/04 08:44:02;;;;;;;5.78;1.90;;;;;;;9.18;100.00;98102.94;5113026;28;20055;-78
2022/11/04 08:46:32;;;;;;;7.82;1.67;;;;;;;9.17;100.00;98102.09;5111628;28;20391;-78
2022/11/04 08:48:59;;;;;;;4.63;1.75;;;;;;;9.13;100.00;98102.72;5113648;28;20047;-78
2022/11/04 08:51:28;;;;;;;5.25;1.27;;;;;;;9.09;100.00;98096.84;5113720;28;20452;-78
2022/11/04 08:53:55;;;;;;;2.25;1.60;;;;;;;9.13;100.00;98105.41;5113216;28;20054;-78
2022/11/04 08:56:24;;;;;;;5.28;1.70;;;;;;;9.34;100.00;98124.28;5113498;28;20130;-78
2022/11/04 08:58:52;;;;;;;5.47;1.80;;;;;;;9.25;100.00;98102.97;5113282;28;20055;-79
2022/11/04 09:01:19;;;;;;;3.40;2.70;;;;;;;9.44;100.00;98112.22;5097485;28;20070;-78
2022/11/04 09:03:46;;;;;;;3.83;1.73;;;;;;;9.50;100.00;98116.81;5109968;28;20043;-78
2022/11/04 09:06:16;;;;;;;4.78;1.55;;;;;;;9.52;100.00;98098.47;5098367;28;20131;-78
2022/11/04 09:08:43;;;;;;;2.93;1.30;;;;;;;9.46;100.00;98094.69;5093056;28;20044;-78
2022/11/04 09:11:13;;;;;;;5.20;1.40;;;;;;;9.52;100.00;98115.59;5093799;28;20517;-78
2022/11/04 09:13:40;;;;;;;3.75;0.93;;;;;;;9.62;100.00;98136.91;5096341;28;20044;-79
2022/11/04 09:16:08;;;;;;;2.03;1.45;;;;;;;9.57;100.00;98126.69;5117394;28;20050;-78
2022/11/04 09:18:34;;;;;;;5.93;3.50;;;;;;;9.68;100.00;98122.53;5117516;28;20053;-78
2022/11/04 09:21:01;;;;;;;6.65;2.90;;;;;;;9.74;100.00;98131.72;5117377;28;20054;-79
2022/11/04 09:23:28;;;;;;;2.33;1.60;;;;;;;9.82;100.00;98136.97;5107513;28;20093;-78
2022/11/04 09:25:57;;;;;;;5.07;3.33;;;;;;;9.77;100.00;98125.91;5097013;28;20454;-78
2022/11/04 09:28:24;;;;;;;5.35;2.42;;;;;;;9.80;100.00;98130.91;5102419;28;20052;-79
2022/11/04 09:30:51;;;;;;;8.80;1.70;;;;;;;9.92;100.00;98141.97;5117103;28;20047;-78
2022/11/04 09:33:17;;;;;;;3.28;1.48;;;;;;;9.90;100.00;98131.31;5116974;28;20075;-79
2022/11/04 09:35:44;;;;;;;3.97;1.40;;;;;;;10.12;100.00;98146.59;5102655;28;20142;-78
2022/11/04 09:38:10;;;;;;;2.65;1.70;;;;;;;10.10;100.00;98142.25;5096777;28;20054;-78
2022/11/04 09:40:37;;;;;;;3.58;1.33;;;;;;;10.22;100.00;98155.19;5096638;28;20147;-78
2022/11/04 09:43:20;;;;;;;5.35;2.20;;;;;;;10.08;100.00;98136.16;5107223;28;20048;-78
2022/11/04 09:45:47;;;;;;;4.10;2.45;;;;;;;10.30;100.00;98155.00;5116921;28;20055;-78
2022/11/04 09:48:22;;;;;;;8.45;3.38;;;;;;;10.23;100.00;98130.53;5116910;28;20131;-78
2022/11/04 09:50:53;;;;;;;4.80;1.85;;;;;;;10.28;100.00;98147.06;5116727;28;20059;-78
2022/11/04 09:53:26;;;;;;;3.70;2.17;;;;;;;10.33;100.00;98142.88;5116468;28;20077;-79
2022/11/04 09:55:58;;;;;;;2.13;1.30;;;;;;;10.26;100.00;98135.56;5114169;28;20686;-78
2022/11/04 09:58:26;;;;;;;1.33;0.90;;;;;;;10.37;100.00;98141.44;5116693;27;20051;-78
2022/11/04 10:01:02;;;;;;;2.17;1.17;;;;;;;10.46;100.00;98137.47;5116366;28;20050;-79
2022/11/04 10:03:45;;;;;;;5.80;1.73;;;;;;;10.54;100.00;98133.72;5116460;28;20066;-79
2022/11/04 10:06:29;;;;;;;5.53;1.42;;;;;;;10.58;100.00;98113.22;5096260;28;20056;-78
2022/11/04 10:09:10;;;;;;;2.20;1.00;;;;;;;10.65;100.00;98118.66;5096032;28;20479;-78
2022/11/04 10:11:45;;;;;;;4.80;1.15;;;;;;;10.66;100.00;98117.59;5110921;28;20146;-78
2022/11/04 10:14:42;;;;;;;3.92;0.90;;;;;;;10.72;100.00;98130.34;5116091;28;20387;-78
2022/11/04 10:17:26;;;;;;;6.38;1.63;;;;;;;10.80;100.00;98117.38;5110962;28;20127;-78
2022/11/04 10:20:04;;;;;;;4.68;1.10;;;;;;;10.94;100.00;98120.06;5116122;28;20056;-78
2022/11/04 10:22:34;;;;;;;3.55;1.00;;;;;;;11.18;100.00;98115.81;5115685;28;20048;-79
2022/11/04 10:25:13;;;;;;;1.75;1.25;;;;;;;11.11;100.00;98125.88;5105049;28;20510;-79
2022/11/04 10:27:43;;;;;;;3.42;1.00;;;;;;;11.04;100.00;98100.59;5095794;28;20066;-79
2022/11/04 10:30:17;;;;;;;3.00;1.15;;;;;;;11.04;100.00;98100.59;5095687;28;20479;-78
2022/11/04 10:32:53;;;;;;;2.58;0.73;;;;;;;10.93;100.00;98100.19;5095351;28;20044;-78
2022/11/04 10:35:28;;;;;;;2.83;1.10;;;;;;;11.12;100.00;98111.22;5095529;28;20470;-78
2022/11/04 10:37:55;;;;;;;9.43;1.90;;;;;;;11.15;100.00;98122.53;5095399;28;20056;-78
2022/11/04 10:40:25;;;;;;;4.00;1.10;;;;;;;10.96;98.97;98102.50;5116236;28;20058;-78
2022/11/04 10:42:52;;;;;;;1.63;0.85;;;;;;;11.05;99.27;98104.97;5115424;28;20503;-78
2022/11/04 10:45:26;;;;;;;1.70;0.80;;;;;;;11.04;98.03;98098.69;5115989;28;20433;-78
2022/11/04 10:47:59;;;;;;;6.65;0.95;;;;;;;11.09;96.76;98106.22;5115900;28;20417;-78
2022/11/04 10:50:30;;;;;;;3.60;0.98;;;;;;;11.15;95.32;98091.75;5095387;28;20483;-78
2022/11/04 10:53:11;;;;;;;4.07;1.00;;;;;;;11.23;95.75;98086.09;5104014;28;20097;-78
2022/11/04 10:55:46;;;;;;;2.05;0.77;;;;;;;11.54;94.74;98106.22;5114611;28;20047;-78
2022/11/04 10:58:19;;;;;;;4.85;0.77;;;;;;;11.36;92.04;98081.63;5115694;27;20058;-78
2022/11/04 11:00:47;;;;;;;5.05;1.65;;;;;;;11.54;91.90;98073.56;5115492;28;20075;-78
2022/11/04 11:03:29;;;;;;;4.55;1.20;;;;;;;11.61;88.23;98104.31;5114798;27;20044;-78
2022/11/04 11:06:13;;;;;;;2.95;1.05;;;;;;;11.72;88.98;98100.06;5113200;28;20475;-78
2022/11/04 11:08:41;;;;;;;5.95;1.00;;;;;;;11.69;87.63;98076.81;5115462;28;20043;-78
2022/11/04 11:11:08;;;;;;;3.33;0.88;;;;;;;12.09;89.58;98094.84;5115182;28;20562;-77
2022/11/04 11:13:37;;;;;;;2.83;1.10;;;;;;;12.06;86.90;98099.88;5114918;28;20040;-78
2022/11/04 11:16:11;;;;;;;7.50;1.35;;;;;;;11.91;85.36;98092.84;5114698;28;20130;-78
2022/11/04 11:18:38;;;;;;;2.00;0.80;;;;;;;12.01;90.04;98085.06;5115082;28;20058;-77
2022/11/04 11:21:09;;;;;;;2.67;0.90;;;;;;;12.28;90.07;98079.38;5112804;28;20044;-78
2022/11/04 11:23:41;;;;;;;2.22;0.95;;;;;;;12.40;86.46;98090.38;5107495;28;20054;-78
2022/11/04 11:26:10;;;;;;;2.75;0.98;;;;;;;12.20;85.35;98063.31;5115203;28;20054;-78
2022/11/04 11:28:39;;;;;;;5.88;1.52;;;;;;;12.00;84.71;98090.72;5115683;28;20058;-78
2022/11/04 11:31:15;;;;;;;1.88;0.80;;;;;;;11.90;84.93;98082.16;5114977;28;20134;-78
2022/11/04 11:33:49;;;;;;;2.45;0.70;;;;;;;11.98;84.99;98090.09;5114434;27;20050;-78
2022/11/04 11:36:19;;;;;;;3.05;1.13;;;;;;;11.66;85.26;98080.00;5094165;28;20109;-78
2022/11/04 11:39:00;;;;;;;2.28;0.80;;;;;;;11.76;90.47;98067.81;5094680;28;20046;-78
2022/11/04 11:41:34;;;;;;;2.65;1.10;;;;;;;11.40;86.74;98064.66;5094287;28;20407;-78
2022/11/04 11:44:18;;;;;;;4.05;1.45;;;;;;;11.57;89.12;98053.25;5094218;28;20148;-78
2022/11/04 11:46:53;;;;;;;5.22;1.17;;;;;;;11.61;88.85;98058.03;5094302;28;20050;-78
2022/11/04 11:49:27;;;;;;;4.57;0.85;;;;;;;11.62;89.30;98045.25;5098878;28;20613;-77
2022/11/04 11:51:53;;;;;;;4.47;1.15;;;;;;;11.61;88.41;98054.50;5094049;28;20047;-78
2022/11/04 11:54:26;;;;;;;4.05;1.25;;;;;;;11.61;86.76;98062.66;5094010;28;20054;-77
2022/11/04 11:56:55;;;;;;;4.80;1.40;;;;;;;11.59;88.20;98059.31;5094433;28;20054;-78
2022/11/04 11:59:31;;;;;;;3.80;1.00;;;;;;;11.89;91.67;98056.81;5093852;28;20511;-78
2022/11/04 12:02:18;;;;;;;3.88;1.08;;;;;;;12.01;92.57;98046.91;5093540;28;20104;-78
2022/11/04 12:04:45;;;;;;;4.28;1.13;;;;;;;12.10;93.42;98046.63;5093939;28;20083;-78
2022/11/04 12:07:20;;;;;;;2.05;1.00;;;;;;;11.98;94.49;98041.06;5093868;28;20055;-78
2022/11/04 12:09:53;;;;;;;7.28;1.88;;;;;;;12.21;94.72;98062.28;5093831;28;20052;-78
2022/11/04 12:12:38;;;;;;;2.78;0.85;;;;;;;12.08;85.95;98046.84;5093123;28;20048;-78
2022/11/04 12:15:22;;;;;;;4.50;0.82;;;;;;;12.14;90.48;98062.31;5093810;28;20051;-78
2022/11/04 12:18:02;;;;;;;5.10;0.98;;;;;;;12.13;91.54;98062.53;5103767;28;20047;-78
2022/11/04 12:20:42;;;;;;;3.85;1.13;;;;;;;12.18;87.06;98062.72;5114343;28;20055;-78